sensor_id;sensor_type;location;lat;lon;timestamp;P1;durP1;ratioP1;P2;durP2;ratioP2
22622;SDS011;11478;51.094;7.030;2022-11-20T00:01:34;21.17;;;15.10;;
22622;SDS011;11478;51.094;7.030;2022-11-20T00:04:00;22.90;;;16.02;;
22622;SDS011;11478;51.094;7.030;2022-11-20T00:06:26;23.25;;;16.48;;
22622;SDS011;11478;51.094;7.030;2022-11-20T00:08:56;23.58;;;16.38;;
22622;SDS011;11478;51.094;7.030;2022-11-20T00:11:25;26.55;;;17.25;;
22622;SDS011;11478;51.094;7.030;2022-11-20T00:13:57;23.65;;;16.55;;
22622;SDS011;11478;51.094;7.030;2022-11-20T00:16:29;24.90;;;16.17;;
22622;SDS011;11478;51.094;7.030;2022-11-20T00:18:56;23.83;;;16.60;;
22622;SDS011;11478;51.094;7.030;2022-11-20T00:21:26;22.65;;;16.40;;
22622;SDS011;11478;51.094;7.030;2022-11-20T00:24:02;25.02;;;16.90;;
22622;SDS011;11478;51.094;7.030;2022-11-20T00:26:28;24.13;;;16.63;;
22622;SDS011;11478;51.094;7.030;2022-11-20T00:28:56;24.02;;;15.80;;
22622;SDS011;11478;51.094;7.030;2022-11-20T00:31:23;22.65;;;15.98;;
22622;SDS011;11478;51.094;7.030;2022-11-20T00:37:17;23.27;;;16.35;;
22622;SDS011;11478;51.094;7.030;2022-11-20T00:39:43;23.63;;;16.42;;
22622;SDS011;11478;51.094;7.030;2022-11-20T00:42:20;25.25;;;17.27;;
22622;SDS011;11478;51.094;7.030;2022-11-20T00:44:45;23.02;;;16.05;;
22622;SDS011;11478;51.094;7.030;2022-11-20T00:47:11;25.45;;;16.85;;
22622;SDS011;11478;51.094;7.030;2022-11-20T00:49:37;23.13;;;16.30;;
22622;SDS011;11478;51.094;7.030;2022-11-20T00:52:05;23.17;;;16.40;;
22622;SDS011;11478;51.094;7.030;2022-11-20T00:54:33;22.83;;;16.75;;
22622;SDS011;11478;51.094;7.030;2022-11-20T00:56:59;22.08;;;15.88;;
22622;SDS011;11478;51.094;7.030;2022-11-20T00:59:29;25.08;;;16.98;;
22622;SDS011;11478;51.094;7.030;2022-11-20T01:01:55;23.60;;;16.95;;
22622;SDS011;11478;51.094;7.030;2022-11-20T01:04:21;23.35;;;16.73;;
22622;SDS011;11478;51.094;7.030;2022-11-20T01:06:46;22.40;;;16.33;;
22622;SDS011;11478;51.094;7.030;2022-11-20T01:09:13;24.27;;;16.88;;
22622;SDS011;11478;51.094;7.030;2022-11-20T01:11:41;24.80;;;16.70;;
22622;SDS011;11478;51.094;7.030;2022-11-20T01:14:16;25.10;;;16.60;;
22622;SDS011;11478;51.094;7.030;2022-11-20T01:19:16;22.02;;;16.48;;
22622;SDS011;11478;51.094;7.030;2022-11-20T01:21:45;21.27;;;15.48;;
22622;SDS011;11478;51.094;7.030;2022-11-20T01:24:14;23.08;;;15.77;;
22622;SDS011;11478;51.094;7.030;2022-11-20T01:26:42;23.80;;;16.60;;
22622;SDS011;11478;51.094;7.030;2022-11-20T01:29:13;22.42;;;15.30;;
22622;SDS011;11478;51.094;7.030;2022-11-20T01:31:44;23.25;;;16.02;;
22622;SDS011;11478;51.094;7.030;2022-11-20T01:34:12;22.70;;;15.65;;
22622;SDS011;11478;51.094;7.030;2022-11-20T01:36:39;22.50;;;16.67;;
22622;SDS011;11478;51.094;7.030;2022-11-20T01:39:07;23.33;;;16.15;;
22622;SDS011;11478;51.094;7.030;2022-11-20T01:41:39;22.75;;;16.15;;
22622;SDS011;11478;51.094;7.030;2022-11-20T01:47:16;22.20;;;15.65;;
22622;SDS011;11478;51.094;7.030;2022-11-20T01:52:45;25.55;;;15.43;;
22622;SDS011;11478;51.094;7.030;2022-11-20T01:55:19;21.35;;;16.02;;
22622;SDS011;11478;51.094;7.030;2022-11-20T01:57:51;21.83;;;16.00;;
22622;SDS011;11478;51.094;7.030;2022-11-20T02:00:18;22.55;;;16.77;;
22622;SDS011;11478;51.094;7.030;2022-11-20T02:02:47;22.17;;;16.27;;
22622;SDS011;11478;51.094;7.030;2022-11-20T02:08:02;22.67;;;15.82;;
22622;SDS011;11478;51.094;7.030;2022-11-20T02:10:31;21.75;;;15.65;;
22622;SDS011;11478;51.094;7.030;2022-11-20T02:12:57;21.90;;;15.75;;
22622;SDS011;11478;51.094;7.030;2022-11-20T02:15:43;22.83;;;15.88;;
22622;SDS011;11478;51.094;7.030;2022-11-20T02:18:11;23.70;;;16.80;;
22622;SDS011;11478;51.094;7.030;2022-11-20T02:20:40;22.70;;;16.02;;
22622;SDS011;11478;51.094;7.030;2022-11-20T02:23:12;22.25;;;15.48;;
22622;SDS011;11478;51.094;7.030;2022-11-20T02:25:52;23.90;;;15.77;;
22622;SDS011;11478;51.094;7.030;2022-11-20T02:28:19;21.83;;;15.20;;
22622;SDS011;11478;51.094;7.030;2022-11-20T02:30:45;22.00;;;15.73;;
22622;SDS011;11478;51.094;7.030;2022-11-20T02:33:11;22.38;;;16.50;;
22622;SDS011;11478;51.094;7.030;2022-11-20T02:35:47;22.30;;;15.90;;
22622;SDS011;11478;51.094;7.030;2022-11-20T02:38:13;20.15;;;15.02;;
22622;SDS011;11478;51.094;7.030;2022-11-20T02:40:40;23.38;;;16.00;;
22622;SDS011;11478;51.094;7.030;2022-11-20T02:43:06;22.42;;;16.00;;
22622;SDS011;11478;51.094;7.030;2022-11-20T02:45:33;21.77;;;15.85;;
22622;SDS011;11478;51.094;7.030;2022-11-20T02:48:02;25.85;;;16.35;;
22622;SDS011;11478;51.094;7.030;2022-11-20T02:50:29;22.23;;;16.25;;
22622;SDS011;11478;51.094;7.030;2022-11-20T02:52:55;22.00;;;16.05;;
22622;SDS011;11478;51.094;7.030;2022-11-20T02:55:20;21.63;;;14.80;;
22622;SDS011;11478;51.094;7.030;2022-11-20T02:57:46;23.67;;;16.10;;
22622;SDS011;11478;51.094;7.030;2022-11-20T03:00:27;23.83;;;16.88;;
22622;SDS011;11478;51.094;7.030;2022-11-20T03:02:53;25.08;;;16.42;;
22622;SDS011;11478;51.094;7.030;2022-11-20T03:05:20;22.52;;;15.50;;
22622;SDS011;11478;51.094;7.030;2022-11-20T03:07:45;23.73;;;16.02;;
22622;SDS011;11478;51.094;7.030;2022-11-20T03:10:14;24.10;;;16.40;;
22622;SDS011;11478;51.094;7.030;2022-11-20T03:12:39;21.65;;;15.55;;
22622;SDS011;11478;51.094;7.030;2022-11-20T03:15:07;20.40;;;14.88;;
22622;SDS011;11478;51.094;7.030;2022-11-20T03:17:33;23.42;;;15.63;;
22622;SDS011;11478;51.094;7.030;2022-11-20T03:20:00;22.35;;;15.27;;
22622;SDS011;11478;51.094;7.030;2022-11-20T03:22:28;23.52;;;15.23;;
22622;SDS011;11478;51.094;7.030;2022-11-20T03:24:57;20.63;;;15.00;;
22622;SDS011;11478;51.094;7.030;2022-11-20T03:27:22;22.05;;;16.00;;
22622;SDS011;11478;51.094;7.030;2022-11-20T03:29:56;23.38;;;15.73;;
22622;SDS011;11478;51.094;7.030;2022-11-20T03:32:21;22.50;;;15.63;;
22622;SDS011;11478;51.094;7.030;2022-11-20T03:38:23;21.88;;;15.48;;
22622;SDS011;11478;51.094;7.030;2022-11-20T03:40:48;23.90;;;15.88;;
22622;SDS011;11478;51.094;7.030;2022-11-20T03:43:32;22.85;;;15.30;;
22622;SDS011;11478;51.094;7.030;2022-11-20T03:45:58;22.23;;;15.90;;
22622;SDS011;11478;51.094;7.030;2022-11-20T03:48:26;22.70;;;15.88;;
22622;SDS011;11478;51.094;7.030;2022-11-20T03:50:53;24.00;;;16.13;;
22622;SDS011;11478;51.094;7.030;2022-11-20T03:53:37;23.17;;;15.88;;
22622;SDS011;11478;51.094;7.030;2022-11-20T03:56:04;23.80;;;15.82;;
22622;SDS011;11478;51.094;7.030;2022-11-20T03:58:32;22.70;;;16.15;;
22622;SDS011;11478;51.094;7.030;2022-11-20T04:01:04;24.17;;;16.70;;
22622;SDS011;11478;51.094;7.030;2022-11-20T04:03:34;26.65;;;16.10;;
22622;SDS011;11478;51.094;7.030;2022-11-20T04:06:10;24.05;;;16.77;;
22622;SDS011;11478;51.094;7.030;2022-11-20T04:08:43;24.27;;;16.10;;
22622;SDS011;11478;51.094;7.030;2022-11-20T04:11:12;24.40;;;15.85;;
22622;SDS011;11478;51.094;7.030;2022-11-20T04:13:50;23.77;;;16.02;;
22622;SDS011;11478;51.094;7.030;2022-11-20T04:18:57;21.85;;;15.27;;
22622;SDS011;11478;51.094;7.030;2022-11-20T04:21:26;24.25;;;15.45;;
22622;SDS011;11478;51.094;7.030;2022-11-20T04:23:54;22.58;;;15.73;;
22622;SDS011;11478;51.094;7.030;2022-11-20T04:26:26;21.75;;;15.75;;
22622;SDS011;11478;51.094;7.030;2022-11-20T04:28:53;22.83;;;15.80;;
22622;SDS011;11478;51.094;7.030;2022-11-20T04:31:20;24.13;;;15.77;;
22622;SDS011;11478;51.094;7.030;2022-11-20T04:33:48;21.08;;;14.32;;
22622;SDS011;11478;51.094;7.030;2022-11-20T04:36:23;21.48;;;15.40;;
22622;SDS011;11478;51.094;7.030;2022-11-20T04:38:50;22.83;;;15.95;;
22622;SDS011;11478;51.094;7.030;2022-11-20T04:44:05;24.20;;;16.52;;
22622;SDS011;11478;51.094;7.030;2022-11-20T04:49:05;20.95;;;14.90;;
22622;SDS011;11478;51.094;7.030;2022-11-20T04:51:33;21.52;;;15.15;;
22622;SDS011;11478;51.094;7.030;2022-11-20T04:53:59;19.60;;;15.00;;
22622;SDS011;11478;51.094;7.030;2022-11-20T04:56:25;22.30;;;15.40;;
22622;SDS011;11478;51.094;7.030;2022-11-20T04:58:52;21.17;;;15.05;;
22622;SDS011;11478;51.094;7.030;2022-11-20T05:01:22;22.63;;;15.88;;
22622;SDS011;11478;51.094;7.030;2022-11-20T05:03:50;22.00;;;15.93;;
22622;SDS011;11478;51.094;7.030;2022-11-20T05:06:17;21.30;;;15.40;;
22622;SDS011;11478;51.094;7.030;2022-11-20T05:08:45;21.70;;;15.65;;
22622;SDS011;11478;51.094;7.030;2022-11-20T05:11:12;20.75;;;15.10;;
22622;SDS011;11478;51.094;7.030;2022-11-20T05:13:40;21.13;;;15.20;;
22622;SDS011;11478;51.094;7.030;2022-11-20T05:16:08;22.10;;;14.73;;
22622;SDS011;11478;51.094;7.030;2022-11-20T05:18:36;23.63;;;16.35;;
22622;SDS011;11478;51.094;7.030;2022-11-20T05:21:02;20.58;;;14.45;;
22622;SDS011;11478;51.094;7.030;2022-11-20T05:26:48;21.40;;;15.10;;
22622;SDS011;11478;51.094;7.030;2022-11-20T05:29:17;23.23;;;15.75;;
22622;SDS011;11478;51.094;7.030;2022-11-20T05:31:43;23.48;;;15.82;;
22622;SDS011;11478;51.094;7.030;2022-11-20T05:34:12;21.08;;;15.07;;
22622;SDS011;11478;51.094;7.030;2022-11-20T05:36:38;24.25;;;16.38;;
22622;SDS011;11478;51.094;7.030;2022-11-20T05:39:04;21.33;;;15.52;;
22622;SDS011;11478;51.094;7.030;2022-11-20T05:41:30;25.20;;;16.05;;
22622;SDS011;11478;51.094;7.030;2022-11-20T05:43:59;22.65;;;15.95;;
22622;SDS011;11478;51.094;7.030;2022-11-20T05:46:25;23.23;;;15.75;;
22622;SDS011;11478;51.094;7.030;2022-11-20T05:48:51;22.67;;;15.48;;
22622;SDS011;11478;51.094;7.030;2022-11-20T05:51:18;23.60;;;16.45;;
22622;SDS011;11478;51.094;7.030;2022-11-20T05:53:49;24.55;;;16.23;;
22622;SDS011;11478;51.094;7.030;2022-11-20T05:56:16;21.52;;;15.07;;
22622;SDS011;11478;51.094;7.030;2022-11-20T05:58:44;22.50;;;16.23;;
22622;SDS011;11478;51.094;7.030;2022-11-20T06:01:12;23.10;;;16.10;;
22622;SDS011;11478;51.094;7.030;2022-11-20T06:03:39;20.88;;;14.80;;
22622;SDS011;11478;51.094;7.030;2022-11-20T06:06:08;22.20;;;16.02;;
22622;SDS011;11478;51.094;7.030;2022-11-20T06:08:34;21.35;;;15.02;;
22622;SDS011;11478;51.094;7.030;2022-11-20T06:13:47;22.25;;;15.98;;
22622;SDS011;11478;51.094;7.030;2022-11-20T06:16:15;24.05;;;16.60;;
22622;SDS011;11478;51.094;7.030;2022-11-20T06:18:43;24.25;;;16.52;;
22622;SDS011;11478;51.094;7.030;2022-11-20T06:21:19;24.23;;;15.77;;
22622;SDS011;11478;51.094;7.030;2022-11-20T06:23:47;22.10;;;15.13;;
22622;SDS011;11478;51.094;7.030;2022-11-20T06:26:14;24.40;;;15.48;;
22622;SDS011;11478;51.094;7.030;2022-11-20T06:28:44;23.13;;;16.02;;
22622;SDS011;11478;51.094;7.030;2022-11-20T06:31:18;22.75;;;15.52;;
22622;SDS011;11478;51.094;7.030;2022-11-20T06:33:45;20.40;;;15.00;;
22622;SDS011;11478;51.094;7.030;2022-11-20T06:36:12;22.60;;;14.85;;
22622;SDS011;11478;51.094;7.030;2022-11-20T06:38:39;24.58;;;15.23;;
22622;SDS011;11478;51.094;7.030;2022-11-20T06:41:10;21.88;;;15.23;;
22622;SDS011;11478;51.094;7.030;2022-11-20T06:43:41;22.85;;;14.70;;
22622;SDS011;11478;51.094;7.030;2022-11-20T06:48:38;25.90;;;16.17;;
22622;SDS011;11478;51.094;7.030;2022-11-20T06:51:06;24.85;;;16.27;;
22622;SDS011;11478;51.094;7.030;2022-11-20T06:53:33;23.73;;;15.02;;
22622;SDS011;11478;51.094;7.030;2022-11-20T06:55:59;25.23;;;16.88;;
22622;SDS011;11478;51.094;7.030;2022-11-20T06:58:26;26.10;;;16.60;;
22622;SDS011;11478;51.094;7.030;2022-11-20T07:00:53;24.52;;;16.80;;
22622;SDS011;11478;51.094;7.030;2022-11-20T07:03:19;24.13;;;16.55;;
22622;SDS011;11478;51.094;7.030;2022-11-20T07:05:45;27.85;;;16.45;;
22622;SDS011;11478;51.094;7.030;2022-11-20T07:08:11;26.17;;;17.73;;
22622;SDS011;11478;51.094;7.030;2022-11-20T07:10:38;28.95;;;17.98;;
22622;SDS011;11478;51.094;7.030;2022-11-20T07:13:04;27.45;;;17.85;;
22622;SDS011;11478;51.094;7.030;2022-11-20T07:15:32;27.60;;;18.10;;
22622;SDS011;11478;51.094;7.030;2022-11-20T07:18:02;28.65;;;18.02;;
22622;SDS011;11478;51.094;7.030;2022-11-20T07:20:28;28.48;;;19.00;;
22622;SDS011;11478;51.094;7.030;2022-11-20T07:22:59;32.47;;;19.13;;
22622;SDS011;11478;51.094;7.030;2022-11-20T07:25:25;29.15;;;18.73;;
22622;SDS011;11478;51.094;7.030;2022-11-20T07:27:57;27.17;;;17.80;;
22622;SDS011;11478;51.094;7.030;2022-11-20T07:30:23;30.38;;;18.80;;
22622;SDS011;11478;51.094;7.030;2022-11-20T07:32:53;28.83;;;17.90;;
22622;SDS011;11478;51.094;7.030;2022-11-20T07:35:20;28.63;;;17.83;;
22622;SDS011;11478;51.094;7.030;2022-11-20T07:41:02;29.73;;;18.73;;
22622;SDS011;11478;51.094;7.030;2022-11-20T07:45:58;33.47;;;20.52;;
22622;SDS011;11478;51.094;7.030;2022-11-20T07:48:24;31.42;;;19.45;;
22622;SDS011;11478;51.094;7.030;2022-11-20T07:50:56;31.35;;;19.73;;
22622;SDS011;11478;51.094;7.030;2022-11-20T07:53:24;29.02;;;18.48;;
22622;SDS011;11478;51.094;7.030;2022-11-20T07:55:50;31.67;;;18.70;;
22622;SDS011;11478;51.094;7.030;2022-11-20T07:58:19;27.17;;;17.50;;
22622;SDS011;11478;51.094;7.030;2022-11-20T08:00:48;30.25;;;18.52;;
22622;SDS011;11478;51.094;7.030;2022-11-20T08:03:14;29.50;;;18.58;;
22622;SDS011;11478;51.094;7.030;2022-11-20T08:05:43;30.77;;;19.38;;
22622;SDS011;11478;51.094;7.030;2022-11-20T08:08:08;30.10;;;18.58;;
22622;SDS011;11478;51.094;7.030;2022-11-20T08:10:37;33.35;;;20.60;;
22622;SDS011;11478;51.094;7.030;2022-11-20T08:13:03;28.73;;;18.25;;
22622;SDS011;11478;51.094;7.030;2022-11-20T08:15:52;29.55;;;18.80;;
22622;SDS011;11478;51.094;7.030;2022-11-20T08:18:17;34.40;;;18.70;;
22622;SDS011;11478;51.094;7.030;2022-11-20T08:20:46;31.58;;;19.20;;
22622;SDS011;11478;51.094;7.030;2022-11-20T08:23:12;30.65;;;19.58;;
22622;SDS011;11478;51.094;7.030;2022-11-20T08:25:38;31.05;;;18.73;;
22622;SDS011;11478;51.094;7.030;2022-11-20T08:28:05;28.30;;;18.92;;
22622;SDS011;11478;51.094;7.030;2022-11-20T08:30:47;30.20;;;18.90;;
22622;SDS011;11478;51.094;7.030;2022-11-20T08:33:13;32.33;;;20.27;;
22622;SDS011;11478;51.094;7.030;2022-11-20T08:38:24;35.45;;;20.38;;
22622;SDS011;11478;51.094;7.030;2022-11-20T08:41:00;32.95;;;20.63;;
22622;SDS011;11478;51.094;7.030;2022-11-20T08:43:45;42.35;;;24.15;;
22622;SDS011;11478;51.094;7.030;2022-11-20T08:46:13;38.72;;;25.35;;
22622;SDS011;11478;51.094;7.030;2022-11-20T08:48:39;45.45;;;27.73;;
22622;SDS011;11478;51.094;7.030;2022-11-20T08:51:05;60.83;;;34.20;;
22622;SDS011;11478;51.094;7.030;2022-11-20T08:53:31;47.78;;;31.52;;
22622;SDS011;11478;51.094;7.030;2022-11-20T08:55:57;46.75;;;29.60;;
22622;SDS011;11478;51.094;7.030;2022-11-20T08:58:23;41.85;;;26.05;;
22622;SDS011;11478;51.094;7.030;2022-11-20T09:00:50;34.40;;;23.30;;
22622;SDS011;11478;51.094;7.030;2022-11-20T09:03:16;35.53;;;21.83;;
22622;SDS011;11478;51.094;7.030;2022-11-20T09:05:41;30.02;;;19.85;;
22622;SDS011;11478;51.094;7.030;2022-11-20T09:08:08;33.22;;;21.15;;
22622;SDS011;11478;51.094;7.030;2022-11-20T09:10:34;33.85;;;21.83;;
22622;SDS011;11478;51.094;7.030;2022-11-20T09:13:00;32.75;;;21.52;;
22622;SDS011;11478;51.094;7.030;2022-11-20T09:15:26;35.22;;;22.80;;
22622;SDS011;11478;51.094;7.030;2022-11-20T09:17:53;31.88;;;21.45;;
22622;SDS011;11478;51.094;7.030;2022-11-20T09:20:23;36.58;;;22.10;;
22622;SDS011;11478;51.094;7.030;2022-11-20T09:25:25;31.75;;;20.50;;
22622;SDS011;11478;51.094;7.030;2022-11-20T09:27:57;31.80;;;21.30;;
22622;SDS011;11478;51.094;7.030;2022-11-20T09:30:23;32.35;;;21.85;;
22622;SDS011;11478;51.094;7.030;2022-11-20T09:32:50;32.08;;;21.10;;
22622;SDS011;11478;51.094;7.030;2022-11-20T09:35:16;31.92;;;20.13;;
22622;SDS011;11478;51.094;7.030;2022-11-20T09:37:48;32.08;;;20.75;;
22622;SDS011;11478;51.094;7.030;2022-11-20T09:40:21;31.08;;;21.30;;
22622;SDS011;11478;51.094;7.030;2022-11-20T09:42:54;31.88;;;20.20;;
22622;SDS011;11478;51.094;7.030;2022-11-20T09:56:45;31.10;;;19.65;;
22622;SDS011;11478;51.094;7.030;2022-11-20T10:02:00;26.40;;;17.63;;
22622;SDS011;11478;51.094;7.030;2022-11-20T10:04:29;29.42;;;19.35;;
22622;SDS011;11478;51.094;7.030;2022-11-20T10:07:15;27.08;;;18.20;;
22622;SDS011;11478;51.094;7.030;2022-11-20T10:09:49;23.40;;;15.60;;
22622;SDS011;11478;51.094;7.030;2022-11-20T10:17:28;22.70;;;15.68;;
22622;SDS011;11478;51.094;7.030;2022-11-20T10:25:29;26.00;;;16.90;;
22622;SDS011;11478;51.094;7.030;2022-11-20T10:30:38;22.50;;;15.25;;
22622;SDS011;11478;51.094;7.030;2022-11-20T10:33:16;22.25;;;15.52;;
22622;SDS011;11478;51.094;7.030;2022-11-20T10:36:05;22.85;;;15.75;;
22622;SDS011;11478;51.094;7.030;2022-11-20T10:38:43;22.50;;;15.63;;
22622;SDS011;11478;51.094;7.030;2022-11-20T10:41:38;24.48;;;15.48;;
22622;SDS011;11478;51.094;7.030;2022-11-20T10:44:25;24.25;;;15.93;;
22622;SDS011;11478;51.094;7.030;2022-11-20T10:47:13;21.70;;;14.60;;
22622;SDS011;11478;51.094;7.030;2022-11-20T10:49:40;23.75;;;16.60;;
22622;SDS011;11478;51.094;7.030;2022-11-20T10:55:05;23.83;;;16.17;;
22622;SDS011;11478;51.094;7.030;2022-11-20T10:57:57;20.65;;;14.63;;
22622;SDS011;11478;51.094;7.030;2022-11-20T11:00:32;21.42;;;15.15;;
22622;SDS011;11478;51.094;7.030;2022-11-20T11:03:07;23.88;;;15.77;;
22622;SDS011;11478;51.094;7.030;2022-11-20T11:06:10;21.70;;;14.93;;
22622;SDS011;11478;51.094;7.030;2022-11-20T11:08:58;24.08;;;16.60;;
22622;SDS011;11478;51.094;7.030;2022-11-20T11:11:31;26.13;;;17.33;;
22622;SDS011;11478;51.094;7.030;2022-11-20T11:14:09;25.63;;;17.00;;
22622;SDS011;11478;51.094;7.030;2022-11-20T11:16:55;23.83;;;17.52;;
22622;SDS011;11478;51.094;7.030;2022-11-20T11:19:22;24.27;;;16.50;;
22622;SDS011;11478;51.094;7.030;2022-11-20T11:24:43;24.92;;;17.15;;
22622;SDS011;11478;51.094;7.030;2022-11-20T11:27:50;28.23;;;17.80;;
22622;SDS011;11478;51.094;7.030;2022-11-20T11:30:23;27.83;;;18.38;;
22622;SDS011;11478;51.094;7.030;2022-11-20T11:33:01;26.40;;;17.48;;
22622;SDS011;11478;51.094;7.030;2022-11-20T11:35:29;24.90;;;17.55;;
22622;SDS011;11478;51.094;7.030;2022-11-20T11:40:39;26.83;;;17.15;;
22622;SDS011;11478;51.094;7.030;2022-11-20T11:43:15;25.25;;;17.33;;
22622;SDS011;11478;51.094;7.030;2022-11-20T11:54:53;44.55;;;27.63;;
22622;SDS011;11478;51.094;7.030;2022-11-20T11:57:37;32.92;;;20.80;;
22622;SDS011;11478;51.094;7.030;2022-11-20T12:00:23;33.85;;;21.50;;
22622;SDS011;11478;51.094;7.030;2022-11-20T12:16:35;27.90;;;18.80;;
22622;SDS011;11478;51.094;7.030;2022-11-20T12:19:04;26.90;;;18.13;;
22622;SDS011;11478;51.094;7.030;2022-11-20T12:21:54;26.80;;;18.33;;
22622;SDS011;11478;51.094;7.030;2022-11-20T12:24:58;29.58;;;19.15;;
22622;SDS011;11478;51.094;7.030;2022-11-20T12:30:50;26.95;;;19.23;;
22622;SDS011;11478;51.094;7.030;2022-11-20T12:52:56;30.85;;;20.85;;
22622;SDS011;11478;51.094;7.030;2022-11-20T12:58:13;29.88;;;19.98;;
22622;SDS011;11478;51.094;7.030;2022-11-20T13:01:06;30.00;;;20.83;;
22622;SDS011;11478;51.094;7.030;2022-11-20T13:04:25;31.50;;;20.85;;
22622;SDS011;11478;51.094;7.030;2022-11-20T13:07:04;30.20;;;19.80;;
22622;SDS011;11478;51.094;7.030;2022-11-20T13:09:33;32.22;;;20.83;;
22622;SDS011;11478;51.094;7.030;2022-11-20T13:12:23;30.58;;;19.73;;
22622;SDS011;11478;51.094;7.030;2022-11-20T13:14:53;31.73;;;20.15;;
22622;SDS011;11478;51.094;7.030;2022-11-20T13:20:19;28.95;;;19.48;;
22622;SDS011;11478;51.094;7.030;2022-11-20T13:22:46;29.75;;;20.23;;
22622;SDS011;11478;51.094;7.030;2022-11-20T13:25:33;34.15;;;21.42;;
22622;SDS011;11478;51.094;7.030;2022-11-20T13:30:36;32.33;;;20.17;;
22622;SDS011;11478;51.094;7.030;2022-11-20T13:33:28;34.90;;;21.45;;
22622;SDS011;11478;51.094;7.030;2022-11-20T13:36:05;32.22;;;20.83;;
22622;SDS011;11478;51.094;7.030;2022-11-20T13:38:52;34.03;;;21.33;;
22622;SDS011;11478;51.094;7.030;2022-11-20T13:41:23;39.30;;;23.17;;
22622;SDS011;11478;51.094;7.030;2022-11-20T13:44:13;36.58;;;21.45;;
22622;SDS011;11478;51.094;7.030;2022-11-20T13:46:49;35.45;;;22.33;;
22622;SDS011;11478;51.094;7.030;2022-11-20T13:49:25;34.28;;;21.75;;
22622;SDS011;11478;51.094;7.030;2022-11-20T13:55:11;33.88;;;21.58;;
22622;SDS011;11478;51.094;7.030;2022-11-20T13:58:46;34.65;;;21.02;;
22622;SDS011;11478;51.094;7.030;2022-11-20T14:01:08;36.75;;;22.42;;
22622;SDS011;11478;51.094;7.030;2022-11-20T14:04:01;32.17;;;20.10;;
22622;SDS011;11478;51.094;7.030;2022-11-20T14:06:43;36.38;;;21.40;;
22622;SDS011;11478;51.094;7.030;2022-11-20T14:09:12;33.47;;;21.08;;
22622;SDS011;11478;51.094;7.030;2022-11-20T14:11:49;39.53;;;24.60;;
22622;SDS011;11478;51.094;7.030;2022-11-20T14:14:19;40.92;;;23.92;;
22622;SDS011;11478;51.094;7.030;2022-11-20T14:17:03;37.38;;;23.73;;
22622;SDS011;11478;51.094;7.030;2022-11-20T14:19:42;32.75;;;20.95;;
22622;SDS011;11478;51.094;7.030;2022-11-20T14:22:32;34.38;;;21.77;;
22622;SDS011;11478;51.094;7.030;2022-11-20T14:25:28;32.72;;;20.08;;
22622;SDS011;11478;51.094;7.030;2022-11-20T14:28:01;32.28;;;21.10;;
22622;SDS011;11478;51.094;7.030;2022-11-20T14:37:52;32.40;;;21.70;;
22622;SDS011;11478;51.094;7.030;2022-11-20T14:47:00;41.83;;;24.52;;
22622;SDS011;11478;51.094;7.030;2022-11-20T14:49:28;30.42;;;19.85;;
22622;SDS011;11478;51.094;7.030;2022-11-20T14:58:06;61.72;;;29.98;;
22622;SDS011;11478;51.094;7.030;2022-11-20T15:01:11;35.95;;;21.88;;
22622;SDS011;11478;51.094;7.030;2022-11-20T15:06:31;38.95;;;21.80;;
22622;SDS011;11478;51.094;7.030;2022-11-20T15:08:59;31.63;;;20.58;;
22622;SDS011;11478;51.094;7.030;2022-11-20T15:24:46;28.00;;;17.85;;
22622;SDS011;11478;51.094;7.030;2022-11-20T15:27:26;32.05;;;18.85;;
22622;SDS011;11478;51.094;7.030;2022-11-20T15:29:53;32.25;;;19.38;;
22622;SDS011;11478;51.094;7.030;2022-11-20T15:32:26;59.70;;;33.78;;
22622;SDS011;11478;51.094;7.030;2022-11-20T15:34:52;35.17;;;21.73;;
22622;SDS011;11478;51.094;7.030;2022-11-20T15:44:02;35.75;;;21.17;;
22622;SDS011;11478;51.094;7.030;2022-11-20T15:46:35;44.35;;;26.65;;
22622;SDS011;11478;51.094;7.030;2022-11-20T15:49:05;55.03;;;31.50;;
22622;SDS011;11478;51.094;7.030;2022-11-20T15:51:48;37.33;;;21.67;;
22622;SDS011;11478;51.094;7.030;2022-11-20T15:58:36;36.15;;;23.70;;
22622;SDS011;11478;51.094;7.030;2022-11-20T16:01:04;35.67;;;21.80;;
22622;SDS011;11478;51.094;7.030;2022-11-20T16:06:52;37.97;;;21.27;;
22622;SDS011;11478;51.094;7.030;2022-11-20T16:16:06;40.00;;;21.60;;
22622;SDS011;11478;51.094;7.030;2022-11-20T16:19:11;38.35;;;21.02;;
22622;SDS011;11478;51.094;7.030;2022-11-20T16:21:54;42.42;;;23.75;;
22622;SDS011;11478;51.094;7.030;2022-11-20T16:24:22;39.45;;;22.15;;
22622;SDS011;11478;51.094;7.030;2022-11-20T16:30:10;44.50;;;22.92;;
22622;SDS011;11478;51.094;7.030;2022-11-20T16:32:38;37.55;;;21.95;;
22622;SDS011;11478;51.094;7.030;2022-11-20T16:35:04;41.00;;;22.05;;
22622;SDS011;11478;51.094;7.030;2022-11-20T16:40:46;38.17;;;21.00;;
22622;SDS011;11478;51.094;7.030;2022-11-20T16:55:48;41.90;;;22.17;;
22622;SDS011;11478;51.094;7.030;2022-11-20T16:58:18;41.30;;;22.20;;
22622;SDS011;11478;51.094;7.030;2022-11-20T17:00:44;51.50;;;28.13;;
22622;SDS011;11478;51.094;7.030;2022-11-20T17:03:14;42.83;;;23.90;;
22622;SDS011;11478;51.094;7.030;2022-11-20T17:05:41;36.92;;;21.25;;
22622;SDS011;11478;51.094;7.030;2022-11-20T17:14:52;35.88;;;18.52;;
22622;SDS011;11478;51.094;7.030;2022-11-20T17:24:06;37.10;;;22.77;;
22622;SDS011;11478;51.094;7.030;2022-11-20T17:29:36;42.40;;;28.00;;
22622;SDS011;11478;51.094;7.030;2022-11-20T17:35:19;18.40;;;10.77;;
22622;SDS011;11478;51.094;7.030;2022-11-20T17:44:36;14.80;;;10.13;;
22622;SDS011;11478;51.094;7.030;2022-11-20T17:47:06;14.52;;;8.27;;
22622;SDS011;11478;51.094;7.030;2022-11-20T17:56:02;9.90;;;6.47;;
22622;SDS011;11478;51.094;7.030;2022-11-20T17:58:57;10.18;;;6.55;;
22622;SDS011;11478;51.094;7.030;2022-11-20T18:08:15;13.30;;;6.63;;
22622;SDS011;11478;51.094;7.030;2022-11-20T18:17:30;13.57;;;6.78;;
22622;SDS011;11478;51.094;7.030;2022-11-20T18:20:33;10.80;;;6.65;;
22622;SDS011;11478;51.094;7.030;2022-11-20T18:26:05;15.20;;;8.45;;
22622;SDS011;11478;51.094;7.030;2022-11-20T18:35:16;9.00;;;6.13;;
22622;SDS011;11478;51.094;7.030;2022-11-20T18:40:23;10.30;;;5.93;;
22622;SDS011;11478;51.094;7.030;2022-11-20T18:49:05;11.82;;;8.93;;
22622;SDS011;11478;51.094;7.030;2022-11-20T19:02:15;25.20;;;17.33;;
22622;SDS011;11478;51.094;7.030;2022-11-20T19:05:36;20.88;;;14.25;;
22622;SDS011;11478;51.094;7.030;2022-11-20T19:08:02;21.58;;;14.50;;
22622;SDS011;11478;51.094;7.030;2022-11-20T19:10:28;24.77;;;15.77;;
22622;SDS011;11478;51.094;7.030;2022-11-20T19:12:58;25.65;;;18.02;;
22622;SDS011;11478;51.094;7.030;2022-11-20T19:15:24;20.63;;;14.75;;
22622;SDS011;11478;51.094;7.030;2022-11-20T19:17:51;22.25;;;17.10;;
22622;SDS011;11478;51.094;7.030;2022-11-20T19:20:17;25.58;;;16.48;;
22622;SDS011;11478;51.094;7.030;2022-11-20T19:22:48;23.88;;;16.15;;
22622;SDS011;11478;51.094;7.030;2022-11-20T19:25:15;25.15;;;15.32;;
22622;SDS011;11478;51.094;7.030;2022-11-20T19:27:41;18.67;;;14.13;;
22622;SDS011;11478;51.094;7.030;2022-11-20T19:30:07;23.42;;;15.27;;
22622;SDS011;11478;51.094;7.030;2022-11-20T19:32:36;27.08;;;15.73;;
22622;SDS011;11478;51.094;7.030;2022-11-20T19:35:02;20.65;;;14.10;;
22622;SDS011;11478;51.094;7.030;2022-11-20T19:37:30;26.10;;;17.35;;